sensor_id;sensor_type;location;lat;lon;timestamp;pressure;altitude;pressure_sealevel;temperature;humidity
28456;BME280;15682;56.742;38.866;2023-03-03T00:00:15;97940.0;;;-1.0;90.7
28456;BME280;15682;56.742;38.866;2023-03-03T00:02:14;97940.0;;;-1.0;90.7
28456;BME280;15682;56.742;38.866;2023-03-03T00:04:14;97940.0;;;-1.0;90.7
28456;BME280;15682;56.742;38.866;2023-03-03T00:06:14;97940.0;;;-1.0;90.7
28456;BME280;15682;56.742;38.866;2023-03-03T00:08:13;97940.0;;;-1.0;90.7
28456;BME280;15682;56.742;38.866;2023-03-03T00:10:14;97930.0;;;-1.0;90.7
28456;BME280;15682;56.742;38.866;2023-03-03T00:12:20;97920.0;;;-1.1;91.0
28456;BME280;15682;56.742;38.866;2023-03-03T00:14:20;97920.0;;;-1.2;91.0
28456;BME280;15682;56.742;38.866;2023-03-03T00:16:16;97920.0;;;-1.1;91.0
28456;BME280;15682;56.742;38.866;2023-03-03T00:18:20;97910.0;;;-1.1;91.0
28456;BME280;15682;56.742;38.866;2023-03-03T00:20:29;97910.0;;;-1.1;91.0
28456;BME280;15682;56.742;38.866;2023-03-03T00:22:18;97910.0;;;-1.2;90.7
28456;BME280;15682;56.742;38.866;2023-03-03T00:24:17;97910.0;;;-1.2;90.7
28456;BME280;15682;56.742;38.866;2023-03-03T00:26:19;97910.0;;;-1.2;90.7
28456;BME280;15682;56.742;38.866;2023-03-03T00:28:21;97910.0;;;-1.2;90.7
28456;BME280;15682;56.742;38.866;2023-03-03T00:30:19;97910.0;;;-1.2;90.7
28456;BME280;15682;56.742;38.866;2023-03-03T00:32:24;97910.0;;;-1.2;90.7
28456;BME280;15682;56.742;38.866;2023-03-03T00:34:22;97910.0;;;-1.2;90.7
28456;BME280;15682;56.742;38.866;2023-03-03T00:36:26;97910.0;;;-1.2;90.7
28456;BME280;15682;56.742;38.866;2023-03-03T00:38:15;97910.0;;;-1.2;90.7
28456;BME280;15682;56.742;38.866;2023-03-03T00:40:20;97900.0;;;-1.2;90.7
28456;BME280;15682;56.742;38.866;2023-03-03T00:42:13;97900.0;;;-1.1;90.9
28456;BME280;15682;56.742;38.866;2023-03-03T00:44:30;97900.0;;;-1.1;90.9
28456;BME280;15682;56.742;38.866;2023-03-03T00:46:15;97900.0;;;-1.1;90.9
28456;BME280;15682;56.742;38.866;2023-03-03T00:48:22;97890.0;;;-1.1;90.9
28456;BME280;15682;56.742;38.866;2023-03-03T00:50:30;97890.0;;;-1.0;90.9
28456;BME280;15682;56.742;38.866;2023-03-03T00:52:13;97890.0;;;-1.0;91.0
28456;BME280;15682;56.742;38.866;2023-03-03T00:54:11;97890.0;;;-1.0;91.0
28456;BME280;15682;56.742;38.866;2023-03-03T00:56:11;97890.0;;;-1.0;91.0
28456;BME280;15682;56.742;38.866;2023-03-03T00:58:11;97890.0;;;-1.0;91.0
28456;BME280;15682;56.742;38.866;2023-03-03T01:00:12;97890.0;;;-1.0;91.2
28456;BME280;15682;56.742;38.866;2023-03-03T01:02:11;97890.0;;;-1.1;91.1
28456;BME280;15682;56.742;38.866;2023-03-03T01:04:11;97890.0;;;-1.1;91.1
28456;BME280;15682;56.742;38.866;2023-03-03T01:06:11;97890.0;;;-1.1;91.1
28456;BME280;15682;56.742;38.866;2023-03-03T01:08:11;97880.0;;;-1.1;91.1
28456;BME280;15682;56.742;38.866;2023-03-03T01:10:11;97880.0;;;-1.1;91.1
28456;BME280;15682;56.742;38.866;2023-03-03T01:12:10;97880.0;;;-1.1;91.1
28456;BME280;15682;56.742;38.866;2023-03-03T01:14:10;97870.0;;;-1.2;91.1
28456;BME280;15682;56.742;38.866;2023-03-03T01:16:10;97870.0;;;-1.2;91.1
28456;BME280;15682;56.742;38.866;2023-03-03T01:18:10;97870.0;;;-1.1;91.1
28456;BME280;15682;56.742;38.866;2023-03-03T01:20:12;97870.0;;;-1.1;91.7
28456;BME280;15682;56.742;38.866;2023-03-03T01:22:10;97870.0;;;-1.1;91.4
28456;BME280;15682;56.742;38.866;2023-03-03T01:24:09;97880.0;;;-1.1;91.4
28456;BME280;15682;56.742;38.866;2023-03-03T01:26:09;97880.0;;;-1.1;91.4
28456;BME280;15682;56.742;38.866;2023-03-03T01:28:09;97870.0;;;-1.1;91.4
28456;BME280;15682;56.742;38.866;2023-03-03T01:30:10;97870.0;;;-1.1;91.4
28456;BME280;15682;56.742;38.866;2023-03-03T01:32:09;97870.0;;;-1.1;91.4
28456;BME280;15682;56.742;38.866;2023-03-03T01:34:09;97860.0;;;-1.1;91.1
28456;BME280;15682;56.742;38.866;2023-03-03T01:36:09;97860.0;;;-1.1;91.7
28456;BME280;15682;56.742;38.866;2023-03-03T01:38:09;97860.0;;;-1.1;91.7
28456;BME280;15682;56.742;38.866;2023-03-03T01:40:13;97860.0;;;-1.1;91.7
28456;BME280;15682;56.742;38.866;2023-03-03T01:42:08;97860.0;;;-1.1;91.6
28456;BME280;15682;56.742;38.866;2023-03-03T01:44:11;97860.0;;;-1.1;91.6
28456;BME280;15682;56.742;38.866;2023-03-03T01:46:27;97840.0;;;-1.3;91.6
28456;BME280;15682;56.742;38.866;2023-03-03T01:48:11;97840.0;;;-1.3;91.6
28456;BME280;15682;56.742;38.866;2023-03-03T01:50:13;97830.0;;;-1.3;92.3
28456;BME280;15682;56.742;38.866;2023-03-03T01:52:12;97830.0;;;-1.4;92.4
28456;BME280;15682;56.742;38.866;2023-03-03T01:54:11;97830.0;;;-1.3;92.9
28456;BME280;15682;56.742;38.866;2023-03-03T01:56:09;97830.0;;;-1.3;92.9
28456;BME280;15682;56.742;38.866;2023-03-03T01:58:11;97830.0;;;-1.3;92.9
28456;BME280;15682;56.742;38.866;2023-03-03T02:00:10;97830.0;;;-1.4;92.9
28456;BME280;15682;56.742;38.866;2023-03-03T02:02:07;97830.0;;;-1.3;92.9
28456;BME280;15682;56.742;38.866;2023-03-03T02:04:07;97830.0;;;-1.3;92.9
28456;BME280;15682;56.742;38.866;2023-03-03T02:06:10;97830.0;;;-1.5;92.9
28456;BME280;15682;56.742;38.866;2023-03-03T02:08:09;97830.0;;;-1.5;92.9
28456;BME280;15682;56.742;38.866;2023-03-03T02:10:10;97820.0;;;-1.5;92.9
28456;BME280;15682;56.742;38.866;2023-03-03T02:12:09;97820.0;;;-1.6;93.7
28456;BME280;15682;56.742;38.866;2023-03-03T02:14:07;97810.0;;;-1.7;93.0
28456;BME280;15682;56.742;38.866;2023-03-03T02:16:07;97810.0;;;-1.7;93.0
28456;BME280;15682;56.742;38.866;2023-03-03T02:18:10;97810.0;;;-1.7;93.0
28456;BME280;15682;56.742;38.866;2023-03-03T02:20:13;97810.0;;;-1.7;93.0
28456;BME280;15682;56.742;38.866;2023-03-03T02:22:06;97810.0;;;-1.7;93.3
28456;BME280;15682;56.742;38.866;2023-03-03T02:24:11;97810.0;;;-1.7;93.3
28456;BME280;15682;56.742;38.866;2023-03-03T02:26:08;97810.0;;;-1.7;93.3
28456;BME280;15682;56.742;38.866;2023-03-03T02:28:06;97810.0;;;-1.5;93.3
28456;BME280;15682;56.742;38.866;2023-03-03T02:30:16;97810.0;;;-1.5;93.3
28456;BME280;15682;56.742;38.866;2023-03-03T02:32:05;97810.0;;;-1.4;92.9
28456;BME280;15682;56.742;38.866;2023-03-03T02:34:05;97810.0;;;-1.4;92.9
28456;BME280;15682;56.742;38.866;2023-03-03T02:36:06;97810.0;;;-1.4;92.9
28456;BME280;15682;56.742;38.866;2023-03-03T02:38:14;97810.0;;;-1.3;92.9
28456;BME280;15682;56.742;38.866;2023-03-03T02:40:07;97810.0;;;-1.3;92.9
28456;BME280;15682;56.742;38.866;2023-03-03T02:42:08;97810.0;;;-1.2;93.0
28456;BME280;15682;56.742;38.866;2023-03-03T02:44:07;97800.0;;;-1.2;93.0
28456;BME280;15682;56.742;38.866;2023-03-03T02:46:05;97800.0;;;-1.2;93.0
28456;BME280;15682;56.742;38.866;2023-03-03T02:48:05;97800.0;;;-1.2;93.0
28456;BME280;15682;56.742;38.866;2023-03-03T02:50:05;97800.0;;;-1.2;92.4
28456;BME280;15682;56.742;38.866;2023-03-03T02:52:07;97800.0;;;-1.1;92.4
28456;BME280;15682;56.742;38.866;2023-03-03T02:54:05;97800.0;;;-1.1;93.2
28456;BME280;15682;56.742;38.866;2023-03-03T02:56:05;97790.0;;;-1.1;93.2
28456;BME280;15682;56.742;38.866;2023-03-03T02:58:04;97790.0;;;-1.1;93.2
28456;BME280;15682;56.742;38.866;2023-03-03T03:00:05;97780.0;;;-1.0;92.6
28456;BME280;15682;56.742;38.866;2023-03-03T03:02:04;97780.0;;;-1.0;92.4
28456;BME280;15682;56.742;38.866;2023-03-03T03:04:06;97780.0;;;-1.1;92.4
28456;BME280;15682;56.742;38.866;2023-03-03T03:06:04;97780.0;;;-1.1;92.4
28456;BME280;15682;56.742;38.866;2023-03-03T03:08:04;97780.0;;;-1.1;92.4
28456;BME280;15682;56.742;38.866;2023-03-03T03:10:04;97780.0;;;-1.1;93.2
28456;BME280;15682;56.742;38.866;2023-03-03T03:12:04;97780.0;;;-1.0;92.4
28456;BME280;15682;56.742;38.866;2023-03-03T03:14:04;97780.0;;;-1.2;92.4
28456;BME280;15682;56.742;38.866;2023-03-03T03:16:04;97780.0;;;-1.2;93.2
28456;BME280;15682;56.742;38.866;2023-03-03T03:18:03;97780.0;;;-1.2;92.7
28456;BME280;15682;56.742;38.866;2023-03-03T03:20:03;97770.0;;;-1.1;92.7
28456;BME280;15682;56.742;38.866;2023-03-03T03:22:03;97770.0;;;-1.1;92.9
28456;BME280;15682;56.742;38.866;2023-03-03T03:24:03;97760.0;;;-1.1;92.2
28456;BME280;15682;56.742;38.866;2023-03-03T03:26:03;97760.0;;;-1.0;92.8
28456;BME280;15682;56.742;38.866;2023-03-03T03:28:03;97760.0;;;-1.0;92.8
28456;BME280;15682;56.742;38.866;2023-03-03T03:30:03;97760.0;;;-1.0;92.8
28456;BME280;15682;56.742;38.866;2023-03-03T03:32:02;97760.0;;;-1.1;93.0
28456;BME280;15682;56.742;38.866;2023-03-03T03:34:02;97760.0;;;-1.1;93.1
28456;BME280;15682;56.742;38.866;2023-03-03T03:36:03;97750.0;;;-1.1;93.1
28456;BME280;15682;56.742;38.866;2023-03-03T03:38:02;97750.0;;;-1.1;93.1
28456;BME280;15682;56.742;38.866;2023-03-03T03:40:02;97750.0;;;-1.1;93.1
28456;BME280;15682;56.742;38.866;2023-03-03T03:42:02;97750.0;;;-1.0;93.1
28456;BME280;15682;56.742;38.866;2023-03-03T03:44:02;97750.0;;;-1.0;93.1
28456;BME280;15682;56.742;38.866;2023-03-03T03:46:02;97750.0;;;-1.0;93.8
28456;BME280;15682;56.742;38.866;2023-03-03T03:48:02;97750.0;;;-1.0;93.2
28456;BME280;15682;56.742;38.866;2023-03-03T03:50:01;97750.0;;;-0.8;93.2
28456;BME280;15682;56.742;38.866;2023-03-03T03:52:01;97750.0;;;-0.9;92.8
28456;BME280;15682;56.742;38.866;2023-03-03T03:54:01;97750.0;;;-0.9;92.8
28456;BME280;15682;56.742;38.866;2023-03-03T03:56:01;97750.0;;;-0.9;92.8
28456;BME280;15682;56.742;38.866;2023-03-03T03:58:01;97750.0;;;-0.9;92.8
28456;BME280;15682;56.742;38.866;2023-03-03T04:00:01;97750.0;;;-0.8;92.8
28456;BME280;15682;56.742;38.866;2023-03-03T04:02:01;97740.0;;;-0.9;93.0
28456;BME280;15682;56.742;38.866;2023-03-03T04:04:01;97740.0;;;-0.9;93.0
28456;BME280;15682;56.742;38.866;2023-03-03T04:06:01;97740.0;;;-0.9;92.6
28456;BME280;15682;56.742;38.866;2023-03-03T04:08:00;97740.0;;;-0.9;92.6
28456;BME280;15682;56.742;38.866;2023-03-03T04:10:00;97740.0;;;-0.9;92.6
28456;BME280;15682;56.742;38.866;2023-03-03T04:12:00;97740.0;;;-0.8;92.5
28456;BME280;15682;56.742;38.866;2023-03-03T04:14:00;97740.0;;;-0.8;92.6
28456;BME280;15682;56.742;38.866;2023-03-03T04:16:00;97740.0;;;-0.7;92.6
28456;BME280;15682;56.742;38.866;2023-03-03T04:18:00;97730.0;;;-0.7;92.6
28456;BME280;15682;56.742;38.866;2023-03-03T04:20:00;97730.0;;;-0.7;92.6
28456;BME280;15682;56.742;38.866;2023-03-03T04:22:00;97730.0;;;-0.7;92.5
28456;BME280;15682;56.742;38.866;2023-03-03T04:24:00;97730.0;;;-0.7;92.5
28456;BME280;15682;56.742;38.866;2023-03-03T04:25:59;97730.0;;;-0.7;92.5
28456;BME280;15682;56.742;38.866;2023-03-03T04:27:59;97730.0;;;-0.7;92.5
28456;BME280;15682;56.742;38.866;2023-03-03T04:30:00;97730.0;;;-0.7;92.5
28456;BME280;15682;56.742;38.866;2023-03-03T04:31:59;97730.0;;;-0.7;92.4
28456;BME280;15682;56.742;38.866;2023-03-03T04:33:59;97730.0;;;-0.7;92.4
28456;BME280;15682;56.742;38.866;2023-03-03T04:35:59;97730.0;;;-0.7;91.9
28456;BME280;15682;56.742;38.866;2023-03-03T04:37:59;97730.0;;;-0.7;91.9
28456;BME280;15682;56.742;38.866;2023-03-03T04:39:59;97730.0;;;-0.7;92.4
28456;BME280;15682;56.742;38.866;2023-03-03T04:41:59;97730.0;;;-0.7;92.2
28456;BME280;15682;56.742;38.866;2023-03-03T04:43:59;97730.0;;;-0.7;92.2
28456;BME280;15682;56.742;38.866;2023-03-03T04:45:59;97730.0;;;-0.7;92.2
28456;BME280;15682;56.742;38.866;2023-03-03T04:47:59;97730.0;;;-0.7;92.2
28456;BME280;15682;56.742;38.866;2023-03-03T04:49:58;97730.0;;;-0.6;92.2
28456;BME280;15682;56.742;38.866;2023-03-03T04:51:58;97730.0;;;-0.5;91.9
28456;BME280;15682;56.742;38.866;2023-03-03T04:53:58;97730.0;;;-0.5;91.8
28456;BME280;15682;56.742;38.866;2023-03-03T04:55:58;97730.0;;;-0.4;91.8
28456;BME280;15682;56.742;38.866;2023-03-03T04:57:58;97730.0;;;-0.3;91.8
28456;BME280;15682;56.742;38.866;2023-03-03T04:59:58;97730.0;;;-0.3;91.8
28456;BME280;15682;56.742;38.866;2023-03-03T05:01:58;97730.0;;;-0.2;91.6
28456;BME280;15682;56.742;38.866;2023-03-03T05:03:58;97730.0;;;-0.2;91.0
28456;BME280;15682;56.742;38.866;2023-03-03T05:05:58;97730.0;;;-0.2;91.0
28456;BME280;15682;56.742;38.866;2023-03-03T05:07:58;97730.0;;;-0.3;91.0
28456;BME280;15682;56.742;38.866;2023-03-03T05:09:58;97730.0;;;-0.2;91.0
28456;BME280;15682;56.742;38.866;2023-03-03T05:11:57;97730.0;;;-0.3;91.2
28456;BME280;15682;56.742;38.866;2023-03-03T05:13:57;97730.0;;;-0.3;91.2
28456;BME280;15682;56.742;38.866;2023-03-03T05:15:57;97730.0;;;-0.3;91.2
28456;BME280;15682;56.742;38.866;2023-03-03T05:17:58;97730.0;;;-0.3;91.2
28456;BME280;15682;56.742;38.866;2023-03-03T05:19:57;97730.0;;;-0.3;91.2
28456;BME280;15682;56.742;38.866;2023-03-03T05:21:57;97730.0;;;-0.2;91.0
28456;BME280;15682;56.742;38.866;2023-03-03T05:23:57;97730.0;;;-0.2;91.0
28456;BME280;15682;56.742;38.866;2023-03-03T05:25:57;97730.0;;;-0.2;91.0
28456;BME280;15682;56.742;38.866;2023-03-03T05:27:57;97730.0;;;-0.2;91.0
28456;BME280;15682;56.742;38.866;2023-03-03T05:29:57;97730.0;;;-0.2;91.0
28456;BME280;15682;56.742;38.866;2023-03-03T05:31:57;97730.0;;;-0.1;91.1
28456;BME280;15682;56.742;38.866;2023-03-03T05:33:57;97730.0;;;-0.1;91.1
28456;BME280;15682;56.742;38.866;2023-03-03T05:35:56;97730.0;;;-0.1;91.1
28456;BME280;15682;56.742;38.866;2023-03-03T05:37:57;97730.0;;;-0.1;91.6
28456;BME280;15682;56.742;38.866;2023-03-03T05:39:56;97730.0;;;-0.1;91.6
28456;BME280;15682;56.742;38.866;2023-03-03T05:41:56;97730.0;;;-0.1;91.4
28456;BME280;15682;56.742;38.866;2023-03-03T05:43:56;97730.0;;;-0.0;91.0
28456;BME280;15682;56.742;38.866;2023-03-03T05:45:57;97730.0;;;-0.0;91.0
28456;BME280;15682;56.742;38.866;2023-03-03T05:47:56;97730.0;;;0.2;90.2
28456;BME280;15682;56.742;38.866;2023-03-03T05:49:56;97730.0;;;0.3;90.2
28456;BME280;15682;56.742;38.866;2023-03-03T05:51:56;97730.0;;;0.2;90.2
28456;BME280;15682;56.742;38.866;2023-03-03T05:53:56;97730.0;;;0.4;90.2
28456;BME280;15682;56.742;38.866;2023-03-03T05:55:56;97730.0;;;0.4;90.2
28456;BME280;15682;56.742;38.866;2023-03-03T05:57:56;97730.0;;;0.4;90.2
28456;BME280;15682;56.742;38.866;2023-03-03T05:59:56;97730.0;;;0.4;90.2
28456;BME280;15682;56.742;38.866;2023-03-03T06:01:56;97730.0;;;0.4;90.5
28456;BME280;15682;56.742;38.866;2023-03-03T06:03:56;97720.0;;;0.5;90.7
28456;BME280;15682;56.742;38.866;2023-03-03T06:05:56;97720.0;;;0.5;90.7
28456;BME280;15682;56.742;38.866;2023-03-03T06:07:55;97720.0;;;0.6;90.7
28456;BME280;15682;56.742;38.866;2023-03-03T06:09:55;97720.0;;;0.6;90.7
28456;BME280;15682;56.742;38.866;2023-03-03T06:11:55;97720.0;;;0.7;90.4
28456;BME280;15682;56.742;38.866;2023-03-03T06:13:55;97720.0;;;0.6;90.4
28456;BME280;15682;56.742;38.866;2023-03-03T06:15:55;97720.0;;;0.7;90.4
28456;BME280;15682;56.742;38.866;2023-03-03T06:17:55;97720.0;;;0.9;90.1
28456;BME280;15682;56.742;38.866;2023-03-03T06:19:55;97720.0;;;0.9;90.1
28456;BME280;15682;56.742;38.866;2023-03-03T06:21:55;97720.0;;;0.6;90.8
28456;BME280;15682;56.742;38.866;2023-03-03T06:23:55;97720.0;;;0.6;91.5
28456;BME280;15682;56.742;38.866;2023-03-03T06:25:56;97720.0;;;0.5;92.1
28456;BME280;15682;56.742;38.866;2023-03-03T06:27:56;97720.0;;;0.5;92.1
28456;BME280;15682;56.742;38.866;2023-03-03T06:29:55;97720.0;;;0.5;92.1
28456;BME280;15682;56.742;38.866;2023-03-03T06:31:55;97720.0;;;0.4;92.1
28456;BME280;15682;56.742;38.866;2023-03-03T06:33:55;97720.0;;;0.4;92.1
28456;BME280;15682;56.742;38.866;2023-03-03T06:35:55;97720.0;;;0.6;92.1
28456;BME280;15682;56.742;38.866;2023-03-03T06:37:55;97720.0;;;0.6;92.1
28456;BME280;15682;56.742;38.866;2023-03-03T06:39:55;97720.0;;;0.6;92.1
28456;BME280;15682;56.742;38.866;2023-03-03T06:41:54;97720.0;;;0.5;91.5
28456;BME280;15682;56.742;38.866;2023-03-03T06:43:54;97720.0;;;0.5;91.5
28456;BME280;15682;56.742;38.866;2023-03-03T06:45:54;97710.0;;;0.7;90.9
28456;BME280;15682;56.742;38.866;2023-03-03T06:47:55;97710.0;;;0.7;90.9
28456;BME280;15682;56.742;38.866;2023-03-03T06:49:54;97710.0;;;1.0;90.9
28456;BME280;15682;56.742;38.866;2023-03-03T06:51:54;97710.0;;;0.7;90.2
28456;BME280;15682;56.742;38.866;2023-03-03T06:53:55;97710.0;;;0.7;90.8
28456;BME280;15682;56.742;38.866;2023-03-03T06:55:56;97710.0;;;0.7;90.8
28456;BME280;15682;56.742;38.866;2023-03-03T06:57:54;97710.0;;;0.7;90.8
28456;BME280;15682;56.742;38.866;2023-03-03T06:59:57;97710.0;;;0.8;90.8
28456;BME280;15682;56.742;38.866;2023-03-03T07:01:54;97710.0;;;1.0;89.8
28456;BME280;15682;56.742;38.866;2023-03-03T07:03:54;97710.0;;;1.4;88.2
28456;BME280;15682;56.742;38.866;2023-03-03T07:05:54;97710.0;;;1.3;88.8
28456;BME280;15682;56.742;38.866;2023-03-03T07:07:54;97710.0;;;1.1;88.8
28456;BME280;15682;56.742;38.866;2023-03-03T07:09:55;97710.0;;;1.1;89.6
28456;BME280;15682;56.742;38.866;2023-03-03T07:11:56;97710.0;;;0.9;90.5
28456;BME280;15682;56.742;38.866;2023-03-03T07:13:54;97710.0;;;0.9;90.5
28456;BME280;15682;56.742;38.866;2023-03-03T07:15:55;97710.0;;;1.3;89.6
28456;BME280;15682;56.742;38.866;2023-03-03T07:17:55;97710.0;;;1.6;88.2
28456;BME280;15682;56.742;38.866;2023-03-03T07:19:53;97710.0;;;1.6;88.2
28456;BME280;15682;56.742;38.866;2023-03-03T07:21:53;97710.0;;;1.3;89.0
28456;BME280;15682;56.742;38.866;2023-03-03T07:23:53;97710.0;;;1.5;89.0
28456;BME280;15682;56.742;38.866;2023-03-03T07:25:54;97710.0;;;1.5;88.5
28456;BME280;15682;56.742;38.866;2023-03-03T07:27:55;97710.0;;;1.3;88.5
28456;BME280;15682;56.742;38.866;2023-03-03T07:29:54;97710.0;;;1.2;89.2
28456;BME280;15682;56.742;38.866;2023-03-03T07:31:54;97710.0;;;1.3;89.0
28456;BME280;15682;56.742;38.866;2023-03-03T07:33:54;97710.0;;;1.3;88.7
28456;BME280;15682;56.742;38.866;2023-03-03T07:35:55;97710.0;;;1.2;88.7
28456;BME280;15682;56.742;38.866;2023-03-03T07:37:54;97710.0;;;1.2;88.7
28456;BME280;15682;56.742;38.866;2023-03-03T07:39:53;97710.0;;;1.2;88.0
28456;BME280;15682;56.742;38.866;2023-03-03T07:41:56;97710.0;;;1.4;87.9
28456;BME280;15682;56.742;38.866;2023-03-03T07:43:54;97710.0;;;1.4;88.1
28456;BME280;15682;56.742;38.866;2023-03-03T07:45:55;97710.0;;;1.4;88.1
28456;BME280;15682;56.742;38.866;2023-03-03T07:47:57;97710.0;;;1.3;87.5
28456;BME280;15682;56.742;38.866;2023-03-03T07:49:54;97710.0;;;1.3;88.2
28456;BME280;15682;56.742;38.866;2023-03-03T07:51:54;97710.0;;;1.3;88.0
28456;BME280;15682;56.742;38.866;2023-03-03T07:53:56;97710.0;;;1.3;88.0
28456;BME280;15682;56.742;38.866;2023-03-03T07:55:53;97720.0;;;1.3;88.0
28456;BME280;15682;56.742;38.866;2023-03-03T07:57:53;97710.0;;;1.1;88.0
28456;BME280;15682;56.742;38.866;2023-03-03T07:59:56;97710.0;;;1.3;88.0
28456;BME280;15682;56.742;38.866;2023-03-03T08:01:54;97710.0;;;1.3;87.6
28456;BME280;15682;56.742;38.866;2023-03-03T08:03:53;97710.0;;;1.5;86.8
28456;BME280;15682;56.742;38.866;2023-03-03T08:05:53;97710.0;;;1.5;86.8
28456;BME280;15682;56.742;38.866;2023-03-03T08:07:54;97720.0;;;1.5;86.8
28456;BME280;15682;56.742;38.866;2023-03-03T08:09:58;97720.0;;;1.5;86.8
28456;BME280;15682;56.742;38.866;2023-03-03T08:11:54;97720.0;;;1.5;87.2
28456;BME280;15682;56.742;38.866;2023-03-03T08:13:52;97720.0;;;1.6;87.2
28456;BME280;15682;56.742;38.866;2023-03-03T08:15:56;97720.0;;;1.8;86.9
28456;BME280;15682;56.742;38.866;2023-03-03T08:17:53;97720.0;;;1.8;86.9
28456;BME280;15682;56.742;38.866;2023-03-03T08:19:54;97720.0;;;1.8;86.3
28456;BME280;15682;56.742;38.866;2023-03-03T08:21:58;97720.0;;;1.8;86.1
28456;BME280;15682;56.742;38.866;2023-03-03T08:23:53;97720.0;;;1.9;86.1
28456;BME280;15682;56.742;38.866;2023-03-03T08:25:53;97730.0;;;1.8;86.1
28456;BME280;15682;56.742;38.866;2023-03-03T08:27:52;97730.0;;;1.8;86.1
28456;BME280;15682;56.742;38.866;2023-03-03T08:29:52;97740.0;;;1.8;86.8
28456;BME280;15682;56.742;38.866;2023-03-03T08:31:52;97740.0;;;1.8;86.5
28456;BME280;15682;56.742;38.866;2023-03-03T08:33:52;97740.0;;;1.8;86.5
28456;BME280;15682;56.742;38.866;2023-03-03T08:35:52;97740.0;;;1.8;86.5
28456;BME280;15682;56.742;38.866;2023-03-03T08:37:52;97740.0;;;1.8;86.5
28456;BME280;15682;56.742;38.866;2023-03-03T08:39:52;97740.0;;;2.0;86.5
28456;BME280;15682;56.742;38.866;2023-03-03T08:41:52;97740.0;;;2.3;85.0
28456;BME280;15682;56.742;38.866;2023-03-03T08:43:52;97740.0;;;2.4;84.9
28456;BME280;15682;56.742;38.866;2023-03-03T08:45:53;97740.0;;;2.9;83.6
28456;BME280;15682;56.742;38.866;2023-03-03T08:47:53;97740.0;;;2.9;83.6
28456;BME280;15682;56.742;38.866;2023-03-03T08:49:52;97740.0;;;2.7;82.9
28456;BME280;15682;56.742;38.866;2023-03-03T08:51:52;97740.0;;;2.6;83.5
28456;BME280;15682;56.742;38.866;2023-03-03T08:53:52;97740.0;;;2.7;83.5
28456;BME280;15682;56.742;38.866;2023-03-03T08:55:52;97740.0;;;2.6;84.3
28456;BME280;15682;56.742;38.866;2023-03-03T08:57:52;97740.0;;;2.3;84.2
28456;BME280;15682;56.742;38.866;2023-03-03T08:59:52;97740.0;;;2.1;84.2
28456;BME280;15682;56.742;38.866;2023-03-03T09:01:52;97740.0;;;2.1;84.8
28456;BME280;15682;56.742;38.866;2023-03-03T09:03:52;97740.0;;;2.1;84.8
28456;BME280;15682;56.742;38.866;2023-03-03T09:05:52;97740.0;;;2.1;84.8
28456;BME280;15682;56.742;38.866;2023-03-03T09:07:53;97740.0;;;2.1;85.4
28456;BME280;15682;56.742;38.866;2023-03-03T09:09:52;97740.0;;;2.2;84.8
28456;BME280;15682;56.742;38.866;2023-03-03T09:11:54;97740.0;;;2.2;84.3
28456;BME280;15682;56.742;38.866;2023-03-03T09:13:59;97740.0;;;2.4;84.3
28456;BME280;15682;56.742;38.866;2023-03-03T09:15:52;97740.0;;;2.8;83.1
28456;BME280;15682;56.742;38.866;2023-03-03T09:17:52;97740.0;;;2.6;83.1
28456;BME280;15682;56.742;38.866;2023-03-03T09:19:54;97750.0;;;2.6;83.6
28456;BME280;15682;56.742;38.866;2023-03-03T09:21:53;97750.0;;;2.6;83.7
28456;BME280;15682;56.742;38.866;2023-03-03T09:23:55;97750.0;;;2.5;83.7
28456;BME280;15682;56.742;38.866;2023-03-03T09:25:52;97750.0;;;2.4;84.1
28456;BME280;15682;56.742;38.866;2023-03-03T09:27:52;97750.0;;;2.2;84.1
28456;BME280;15682;56.742;38.866;2023-03-03T09:29:52;97750.0;;;2.2;83.5
28456;BME280;15682;56.742;38.866;2023-03-03T09:31:53;97750.0;;;2.6;83.3
28456;BME280;15682;56.742;38.866;2023-03-03T09:33:52;97750.0;;;2.5;82.9
28456;BME280;15682;56.742;38.866;2023-03-03T09:35:56;97750.0;;;2.2;83.5
28456;BME280;15682;56.742;38.866;2023-03-03T09:37:52;97750.0;;;2.2;84.1
28456;BME280;15682;56.742;38.866;2023-03-03T09:39:54;97750.0;;;2.2;84.1
28456;BME280;15682;56.742;38.866;2023-03-03T09:44:14;97750.0;;;2.2;84.0
28456;BME280;15682;56.742;38.866;2023-03-03T09:45:58;97750.0;;;2.3;84.0
28456;BME280;15682;56.742;38.866;2023-03-03T09:48:06;97750.0;;;2.3;84.0
28456;BME280;15682;56.742;38.866;2023-03-03T09:49:58;97750.0;;;2.4;83.5
28456;BME280;15682;56.742;38.866;2023-03-03T09:52:03;97750.0;;;2.2;84.0
28456;BME280;15682;56.742;38.866;2023-03-03T09:54:01;97760.0;;;2.0;84.7
28456;BME280;15682;56.742;38.866;2023-03-03T09:55:58;97760.0;;;2.0;84.7
28456;BME280;15682;56.742;38.866;2023-03-03T09:58:03;97760.0;;;2.4;83.7
28456;BME280;15682;56.742;38.866;2023-03-03T10:00:07;97760.0;;;2.6;82.9
28456;BME280;15682;56.742;38.866;2023-03-03T10:02:02;97760.0;;;2.6;83.2
28456;BME280;15682;56.742;38.866;2023-03-03T10:04:02;97760.0;;;2.6;83.2
28456;BME280;15682;56.742;38.866;2023-03-03T10:05:58;97760.0;;;2.5;83.2
28456;BME280;15682;56.742;38.866;2023-03-03T10:08:02;97760.0;;;2.2;83.9
28456;BME280;15682;56.742;38.866;2023-03-03T10:10:05;97760.0;;;2.3;83.4
28456;BME280;15682;56.742;38.866;2023-03-03T10:11:56;97760.0;;;2.4;83.6
28456;BME280;15682;56.742;38.866;2023-03-03T10:14:02;97760.0;;;2.6;83.6
28456;BME280;15682;56.742;38.866;2023-03-03T10:16:11;97760.0;;;2.8;81.4
28456;BME280;15682;56.742;38.866;2023-03-03T10:17:55;97760.0;;;2.9;81.4
28456;BME280;15682;56.742;38.866;2023-03-03T10:20:03;97760.0;;;2.9;81.4
28456;BME280;15682;56.742;38.866;2023-03-03T10:21:57;97760.0;;;2.9;81.4
28456;BME280;15682;56.742;38.866;2023-03-03T10:23:55;97760.0;;;3.1;81.9
28456;BME280;15682;56.742;38.866;2023-03-03T10:25:58;97760.0;;;2.9;81.9
28456;BME280;15682;56.742;38.866;2023-03-03T10:28:04;97760.0;;;2.9;81.9
28456;BME280;15682;56.742;38.866;2023-03-03T10:29:59;97760.0;;;3.2;80.7
28456;BME280;15682;56.742;38.866;2023-03-03T10:32:01;97760.0;;;3.2;80.5
28456;BME280;15682;56.742;38.866;2023-03-03T10:33:57;97760.0;;;3.2;80.5
28456;BME280;15682;56.742;38.866;2023-03-03T10:36:01;97760.0;;;3.2;80.5
28456;BME280;15682;56.742;38.866;2023-03-03T10:38:05;97760.0;;;3.1;81.4
28456;BME280;15682;56.742;38.866;2023-03-03T10:40:02;97760.0;;;3.0;81.7
28456;BME280;15682;56.742;38.866;2023-03-03T10:42:01;97760.0;;;2.9;81.3
28456;BME280;15682;56.742;38.866;2023-03-03T10:44:03;97750.0;;;2.9;81.3
28456;BME280;15682;56.742;38.866;2023-03-03T10:46:05;97750.0;;;2.9;81.3
28456;BME280;15682;56.742;38.866;2023-03-03T10:48:01;97750.0;;;2.9;81.3
28456;BME280;15682;56.742;38.866;2023-03-03T10:50:02;97750.0;;;2.7;81.3
28456;BME280;15682;56.742;38.866;2023-03-03T10:52:03;97750.0;;;2.6;82.4
28456;BME280;15682;56.742;38.866;2023-03-03T10:54:02;97750.0;;;2.4;83.2
28456;BME280;15682;56.742;38.866;2023-03-03T10:56:12;97750.0;;;2.6;83.2
28456;BME280;15682;56.742;38.866;2023-03-03T10:58:02;97760.0;;;2.6;83.2